sensor_id;sensor_type;location;lat;lon;timestamp;temperature;humidity
43946;DHT22;29599;51.196;4.428;2022-08-21T00:01:06;18.50;99.90
43946;DHT22;29599;51.196;4.428;2022-08-21T00:03:35;18.50;99.90
43946;DHT22;29599;51.196;4.428;2022-08-21T00:06:01;18.50;99.90
43946;DHT22;29599;51.196;4.428;2022-08-21T00:08:26;18.50;99.90
43946;DHT22;29599;51.196;4.428;2022-08-21T00:10:52;18.40;99.90
43946;DHT22;29599;51.196;4.428;2022-08-21T00:13:18;18.50;99.90
43946;DHT22;29599;51.196;4.428;2022-08-21T00:15:45;18.50;99.90
43946;DHT22;29599;51.196;4.428;2022-08-21T00:18:10;18.50;99.90
43946;DHT22;29599;51.196;4.428;2022-08-21T00:20:38;18.40;99.90
43946;DHT22;29599;51.196;4.428;2022-08-21T00:23:04;18.30;99.90
43946;DHT22;29599;51.196;4.428;2022-08-21T00:25:30;18.30;99.90
43946;DHT22;29599;51.196;4.428;2022-08-21T00:27:56;18.30;99.90
43946;DHT22;29599;51.196;4.428;2022-08-21T00:30:24;18.30;99.90
43946;DHT22;29599;51.196;4.428;2022-08-21T00:32:51;18.30;99.90
43946;DHT22;29599;51.196;4.428;2022-08-21T00:35:20;18.20;99.90
43946;DHT22;29599;51.196;4.428;2022-08-21T00:37:46;18.20;99.90
43946;DHT22;29599;51.196;4.428;2022-08-21T00:40:16;18.10;99.90
43946;DHT22;29599;51.196;4.428;2022-08-21T00:42:43;18.10;99.90
43946;DHT22;29599;51.196;4.428;2022-08-21T00:45:09;18.10;99.90
43946;DHT22;29599;51.196;4.428;2022-08-21T00:47:36;18.10;99.90
43946;DHT22;29599;51.196;4.428;2022-08-21T00:50:04;18.00;99.90
43946;DHT22;29599;51.196;4.428;2022-08-21T00:52:32;18.00;99.90
43946;DHT22;29599;51.196;4.428;2022-08-21T00:54:59;18.00;99.90
43946;DHT22;29599;51.196;4.428;2022-08-21T00:57:32;17.90;99.90
43946;DHT22;29599;51.196;4.428;2022-08-21T01:00:00;17.90;99.90
43946;DHT22;29599;51.196;4.428;2022-08-21T01:02:26;17.90;99.90
43946;DHT22;29599;51.196;4.428;2022-08-21T01:04:52;17.90;99.90
43946;DHT22;29599;51.196;4.428;2022-08-21T01:07:18;17.90;99.90
43946;DHT22;29599;51.196;4.428;2022-08-21T01:09:46;17.90;99.90
43946;DHT22;29599;51.196;4.428;2022-08-21T01:12:13;18.00;99.90
43946;DHT22;29599;51.196;4.428;2022-08-21T01:14:40;18.00;99.90
43946;DHT22;29599;51.196;4.428;2022-08-21T01:17:08;17.90;99.90
43946;DHT22;29599;51.196;4.428;2022-08-21T01:19:35;17.70;99.90
43946;DHT22;29599;51.196;4.428;2022-08-21T01:22:01;17.70;99.90
43946;DHT22;29599;51.196;4.428;2022-08-21T01:24:27;17.60;99.90
43946;DHT22;29599;51.196;4.428;2022-08-21T01:26:52;17.60;99.90
43946;DHT22;29599;51.196;4.428;2022-08-21T01:29:54;17.60;99.90
43946;DHT22;29599;51.196;4.428;2022-08-21T01:32:22;17.60;99.90
43946;DHT22;29599;51.196;4.428;2022-08-21T01:34:50;17.60;99.90
43946;DHT22;29599;51.196;4.428;2022-08-21T01:37:17;17.60;99.90
43946;DHT22;29599;51.196;4.428;2022-08-21T01:39:44;17.50;99.90
43946;DHT22;29599;51.196;4.428;2022-08-21T01:42:10;17.60;99.90
43946;DHT22;29599;51.196;4.428;2022-08-21T01:44:36;17.60;99.90
43946;DHT22;29599;51.196;4.428;2022-08-21T01:47:05;17.50;99.90
43946;DHT22;29599;51.196;4.428;2022-08-21T01:49:31;17.50;99.90
43946;DHT22;29599;51.196;4.428;2022-08-21T01:51:56;17.50;99.90
43946;DHT22;29599;51.196;4.428;2022-08-21T01:54:22;17.50;99.90
43946;DHT22;29599;51.196;4.428;2022-08-21T01:56:51;17.50;99.90
43946;DHT22;29599;51.196;4.428;2022-08-21T01:59:17;17.50;99.90
43946;DHT22;29599;51.196;4.428;2022-08-21T02:01:42;17.40;99.90
43946;DHT22;29599;51.196;4.428;2022-08-21T02:04:09;17.50;99.90
43946;DHT22;29599;51.196;4.428;2022-08-21T02:06:36;17.40;99.90
43946;DHT22;29599;51.196;4.428;2022-08-21T02:09:03;17.40;99.90
43946;DHT22;29599;51.196;4.428;2022-08-21T02:11:30;17.40;99.90
43946;DHT22;29599;51.196;4.428;2022-08-21T02:13:56;17.40;99.90
43946;DHT22;29599;51.196;4.428;2022-08-21T02:16:22;17.40;99.90
43946;DHT22;29599;51.196;4.428;2022-08-21T02:18:48;17.30;99.90
43946;DHT22;29599;51.196;4.428;2022-08-21T02:21:13;17.40;99.90
43946;DHT22;29599;51.196;4.428;2022-08-21T02:23:39;17.30;99.90
43946;DHT22;29599;51.196;4.428;2022-08-21T02:26:07;17.30;99.90
43946;DHT22;29599;51.196;4.428;2022-08-21T02:28:33;17.40;99.90
43946;DHT22;29599;51.196;4.428;2022-08-21T02:30:59;17.30;99.90
43946;DHT22;29599;51.196;4.428;2022-08-21T02:33:25;17.30;99.90
43946;DHT22;29599;51.196;4.428;2022-08-21T02:35:51;17.30;99.90
43946;DHT22;29599;51.196;4.428;2022-08-21T02:38:20;17.30;99.90
43946;DHT22;29599;51.196;4.428;2022-08-21T02:40:48;17.30;99.90
43946;DHT22;29599;51.196;4.428;2022-08-21T02:43:15;17.30;99.90
43946;DHT22;29599;51.196;4.428;2022-08-21T02:45:42;17.20;99.90
43946;DHT22;29599;51.196;4.428;2022-08-21T02:48:11;17.30;99.90
43946;DHT22;29599;51.196;4.428;2022-08-21T02:50:40;17.20;99.90
43946;DHT22;29599;51.196;4.428;2022-08-21T02:53:08;17.10;99.90
43946;DHT22;29599;51.196;4.428;2022-08-21T02:55:35;17.10;99.90
43946;DHT22;29599;51.196;4.428;2022-08-21T02:58:01;17.10;99.90
43946;DHT22;29599;51.196;4.428;2022-08-21T03:00:30;17.10;99.90
43946;DHT22;29599;51.196;4.428;2022-08-21T03:02:56;17.10;99.90
43946;DHT22;29599;51.196;4.428;2022-08-21T03:05:23;17.10;99.90
43946;DHT22;29599;51.196;4.428;2022-08-21T03:07:49;17.10;99.90
43946;DHT22;29599;51.196;4.428;2022-08-21T03:10:15;17.10;99.90
43946;DHT22;29599;51.196;4.428;2022-08-21T03:12:41;17.10;99.90
43946;DHT22;29599;51.196;4.428;2022-08-21T03:15:10;17.10;99.90
43946;DHT22;29599;51.196;4.428;2022-08-21T03:17:36;17.10;99.90
43946;DHT22;29599;51.196;4.428;2022-08-21T03:20:04;17.00;99.90
43946;DHT22;29599;51.196;4.428;2022-08-21T03:22:30;17.10;99.90
43946;DHT22;29599;51.196;4.428;2022-08-21T03:24:55;17.10;99.90
43946;DHT22;29599;51.196;4.428;2022-08-21T03:27:22;17.00;99.90
43946;DHT22;29599;51.196;4.428;2022-08-21T03:29:52;17.00;99.90
43946;DHT22;29599;51.196;4.428;2022-08-21T03:32:18;16.90;99.90
43946;DHT22;29599;51.196;4.428;2022-08-21T03:34:44;16.90;99.90
43946;DHT22;29599;51.196;4.428;2022-08-21T03:37:10;17.00;99.90
43946;DHT22;29599;51.196;4.428;2022-08-21T03:39:36;17.00;99.90
43946;DHT22;29599;51.196;4.428;2022-08-21T03:42:02;16.90;99.90
43946;DHT22;29599;51.196;4.428;2022-08-21T03:44:28;16.80;99.90
43946;DHT22;29599;51.196;4.428;2022-08-21T03:46:55;16.90;99.90
43946;DHT22;29599;51.196;4.428;2022-08-21T03:49:20;16.80;99.90
43946;DHT22;29599;51.196;4.428;2022-08-21T03:51:46;16.80;99.90
43946;DHT22;29599;51.196;4.428;2022-08-21T03:54:12;16.80;99.90
43946;DHT22;29599;51.196;4.428;2022-08-21T03:56:37;16.80;99.90
43946;DHT22;29599;51.196;4.428;2022-08-21T03:59:05;16.80;99.90
43946;DHT22;29599;51.196;4.428;2022-08-21T04:01:30;16.80;99.90
43946;DHT22;29599;51.196;4.428;2022-08-21T04:03:56;16.70;99.90
43946;DHT22;29599;51.196;4.428;2022-08-21T04:06:22;16.70;99.90
43946;DHT22;29599;51.196;4.428;2022-08-21T04:08:48;16.70;99.90
43946;DHT22;29599;51.196;4.428;2022-08-21T04:11:14;16.80;99.90
43946;DHT22;29599;51.196;4.428;2022-08-21T04:13:40;16.80;99.90
43946;DHT22;29599;51.196;4.428;2022-08-21T04:16:07;16.80;99.90
43946;DHT22;29599;51.196;4.428;2022-08-21T04:18:32;16.70;99.90
43946;DHT22;29599;51.196;4.428;2022-08-21T04:20:59;16.70;99.90
43946;DHT22;29599;51.196;4.428;2022-08-21T04:23:25;16.70;99.90
43946;DHT22;29599;51.196;4.428;2022-08-21T04:25:52;16.60;99.90
43946;DHT22;29599;51.196;4.428;2022-08-21T04:28:19;16.60;99.90
43946;DHT22;29599;51.196;4.428;2022-08-21T04:30:45;16.60;99.90
43946;DHT22;29599;51.196;4.428;2022-08-21T04:33:11;16.60;99.90
43946;DHT22;29599;51.196;4.428;2022-08-21T04:35:36;16.60;99.90
43946;DHT22;29599;51.196;4.428;2022-08-21T04:38:02;16.60;99.90
43946;DHT22;29599;51.196;4.428;2022-08-21T04:40:28;16.60;99.90
43946;DHT22;29599;51.196;4.428;2022-08-21T04:43:01;16.60;99.90
43946;DHT22;29599;51.196;4.428;2022-08-21T04:45:30;16.50;99.90
43946;DHT22;29599;51.196;4.428;2022-08-21T04:47:58;16.60;99.90
43946;DHT22;29599;51.196;4.428;2022-08-21T04:50:31;16.60;99.90
43946;DHT22;29599;51.196;4.428;2022-08-21T04:52:57;16.60;99.90
43946;DHT22;29599;51.196;4.428;2022-08-21T04:55:24;16.60;99.90
43946;DHT22;29599;51.196;4.428;2022-08-21T04:57:51;16.50;99.90
43946;DHT22;29599;51.196;4.428;2022-08-21T05:00:19;16.50;99.90
43946;DHT22;29599;51.196;4.428;2022-08-21T05:02:45;16.50;99.90
43946;DHT22;29599;51.196;4.428;2022-08-21T05:05:13;16.50;99.90
43946;DHT22;29599;51.196;4.428;2022-08-21T05:07:39;16.50;99.90
43946;DHT22;29599;51.196;4.428;2022-08-21T05:10:05;16.50;99.90
43946;DHT22;29599;51.196;4.428;2022-08-21T05:12:33;16.60;99.90
43946;DHT22;29599;51.196;4.428;2022-08-21T05:14:59;16.50;99.90
43946;DHT22;29599;51.196;4.428;2022-08-21T05:17:25;16.50;99.90
43946;DHT22;29599;51.196;4.428;2022-08-21T05:19:51;16.50;99.90
43946;DHT22;29599;51.196;4.428;2022-08-21T05:22:22;16.50;99.90
43946;DHT22;29599;51.196;4.428;2022-08-21T05:24:48;16.60;99.90
43946;DHT22;29599;51.196;4.428;2022-08-21T05:27:14;16.60;99.90
43946;DHT22;29599;51.196;4.428;2022-08-21T05:29:39;16.60;99.90
43946;DHT22;29599;51.196;4.428;2022-08-21T05:32:12;16.60;99.90
43946;DHT22;29599;51.196;4.428;2022-08-21T05:34:38;16.60;99.90
43946;DHT22;29599;51.196;4.428;2022-08-21T05:37:05;16.70;99.90
43946;DHT22;29599;51.196;4.428;2022-08-21T05:39:35;16.70;99.90
43946;DHT22;29599;51.196;4.428;2022-08-21T05:42:00;16.70;99.90
43946;DHT22;29599;51.196;4.428;2022-08-21T05:44:26;16.80;99.90
43946;DHT22;29599;51.196;4.428;2022-08-21T05:46:52;16.80;99.90
43946;DHT22;29599;51.196;4.428;2022-08-21T05:49:18;16.80;99.90
43946;DHT22;29599;51.196;4.428;2022-08-21T05:51:44;16.90;99.90
43946;DHT22;29599;51.196;4.428;2022-08-21T05:54:10;17.00;99.90
43946;DHT22;29599;51.196;4.428;2022-08-21T05:56:39;17.00;99.90
43946;DHT22;29599;51.196;4.428;2022-08-21T05:59:05;17.00;99.90
43946;DHT22;29599;51.196;4.428;2022-08-21T06:01:31;17.10;99.90
43946;DHT22;29599;51.196;4.428;2022-08-21T06:03:57;17.10;99.90
43946;DHT22;29599;51.196;4.428;2022-08-21T06:06:24;17.20;99.90
43946;DHT22;29599;51.196;4.428;2022-08-21T06:08:50;17.20;99.90
43946;DHT22;29599;51.196;4.428;2022-08-21T06:11:16;17.30;99.90
43946;DHT22;29599;51.196;4.428;2022-08-21T06:13:41;17.30;99.90
43946;DHT22;29599;51.196;4.428;2022-08-21T06:16:10;17.40;99.90
43946;DHT22;29599;51.196;4.428;2022-08-21T06:18:37;17.50;99.90
43946;DHT22;29599;51.196;4.428;2022-08-21T06:21:03;17.50;99.90
43946;DHT22;29599;51.196;4.428;2022-08-21T06:23:29;17.60;99.90
43946;DHT22;29599;51.196;4.428;2022-08-21T06:25:54;17.70;99.90
43946;DHT22;29599;51.196;4.428;2022-08-21T06:28:20;17.70;99.90
43946;DHT22;29599;51.196;4.428;2022-08-21T06:30:46;17.80;99.90
43946;DHT22;29599;51.196;4.428;2022-08-21T06:33:11;17.90;99.90
43946;DHT22;29599;51.196;4.428;2022-08-21T06:35:37;18.00;99.90
43946;DHT22;29599;51.196;4.428;2022-08-21T06:38:03;18.00;99.90
43946;DHT22;29599;51.196;4.428;2022-08-21T06:40:29;18.00;99.90
43946;DHT22;29599;51.196;4.428;2022-08-21T06:42:56;18.10;99.90
43946;DHT22;29599;51.196;4.428;2022-08-21T06:45:22;18.20;99.90
43946;DHT22;29599;51.196;4.428;2022-08-21T06:47:48;18.30;99.90
43946;DHT22;29599;51.196;4.428;2022-08-21T06:50:13;18.30;99.90
43946;DHT22;29599;51.196;4.428;2022-08-21T06:52:39;18.40;99.90
43946;DHT22;29599;51.196;4.428;2022-08-21T06:55:07;18.40;99.90
43946;DHT22;29599;51.196;4.428;2022-08-21T06:57:33;18.50;99.90
43946;DHT22;29599;51.196;4.428;2022-08-21T06:59:59;18.60;99.90
43946;DHT22;29599;51.196;4.428;2022-08-21T07:02:25;18.60;99.90
43946;DHT22;29599;51.196;4.428;2022-08-21T07:04:50;18.60;99.90
43946;DHT22;29599;51.196;4.428;2022-08-21T07:07:17;18.70;99.90
43946;DHT22;29599;51.196;4.428;2022-08-21T07:09:42;18.80;99.90
43946;DHT22;29599;51.196;4.428;2022-08-21T07:12:08;18.90;99.90
43946;DHT22;29599;51.196;4.428;2022-08-21T07:14:35;19.20;99.90
43946;DHT22;29599;51.196;4.428;2022-08-21T07:17:00;19.20;99.90
43946;DHT22;29599;51.196;4.428;2022-08-21T07:19:26;19.30;99.90
43946;DHT22;29599;51.196;4.428;2022-08-21T07:21:56;19.40;99.90
43946;DHT22;29599;51.196;4.428;2022-08-21T07:24:22;19.40;99.90
43946;DHT22;29599;51.196;4.428;2022-08-21T07:26:48;19.40;99.90
43946;DHT22;29599;51.196;4.428;2022-08-21T07:29:14;19.60;99.90
43946;DHT22;29599;51.196;4.428;2022-08-21T07:31:40;19.50;99.90
43946;DHT22;29599;51.196;4.428;2022-08-21T07:34:05;19.40;99.90
43946;DHT22;29599;51.196;4.428;2022-08-21T07:36:31;19.40;99.90
43946;DHT22;29599;51.196;4.428;2022-08-21T07:38:56;19.40;99.90
43946;DHT22;29599;51.196;4.428;2022-08-21T07:41:25;19.40;99.90
43946;DHT22;29599;51.196;4.428;2022-08-21T07:43:51;19.50;99.90
43946;DHT22;29599;51.196;4.428;2022-08-21T07:46:16;19.60;99.90
43946;DHT22;29599;51.196;4.428;2022-08-21T07:48:42;19.60;99.90
43946;DHT22;29599;51.196;4.428;2022-08-21T07:51:11;19.60;99.90
43946;DHT22;29599;51.196;4.428;2022-08-21T07:53:37;19.60;99.90
43946;DHT22;29599;51.196;4.428;2022-08-21T07:56:05;19.60;99.90
43946;DHT22;29599;51.196;4.428;2022-08-21T07:58:32;19.60;99.90
43946;DHT22;29599;51.196;4.428;2022-08-21T08:00:58;19.60;99.90
43946;DHT22;29599;51.196;4.428;2022-08-21T08:03:24;19.70;99.90
43946;DHT22;29599;51.196;4.428;2022-08-21T08:05:49;19.60;99.90
43946;DHT22;29599;51.196;4.428;2022-08-21T08:08:15;19.70;99.90
43946;DHT22;29599;51.196;4.428;2022-08-21T08:10:42;19.70;99.90
43946;DHT22;29599;51.196;4.428;2022-08-21T08:13:09;19.70;99.90
43946;DHT22;29599;51.196;4.428;2022-08-21T08:15:36;19.70;99.90
43946;DHT22;29599;51.196;4.428;2022-08-21T08:18:02;19.70;99.90
43946;DHT22;29599;51.196;4.428;2022-08-21T08:20:28;19.80;99.90
43946;DHT22;29599;51.196;4.428;2022-08-21T08:22:55;19.80;99.90
43946;DHT22;29599;51.196;4.428;2022-08-21T08:25:22;19.80;99.90
43946;DHT22;29599;51.196;4.428;2022-08-21T08:27:48;19.80;99.90
43946;DHT22;29599;51.196;4.428;2022-08-21T08:30:15;19.80;99.90
43946;DHT22;29599;51.196;4.428;2022-08-21T08:32:42;19.80;99.90
43946;DHT22;29599;51.196;4.428;2022-08-21T08:35:08;19.80;99.90
43946;DHT22;29599;51.196;4.428;2022-08-21T08:37:35;19.80;99.90
43946;DHT22;29599;51.196;4.428;2022-08-21T08:40:04;19.80;99.90
43946;DHT22;29599;51.196;4.428;2022-08-21T08:42:35;19.80;99.90
43946;DHT22;29599;51.196;4.428;2022-08-21T08:45:11;19.90;99.90
43946;DHT22;29599;51.196;4.428;2022-08-21T08:47:40;19.90;99.90
43946;DHT22;29599;51.196;4.428;2022-08-21T08:50:18;19.90;99.90
43946;DHT22;29599;51.196;4.428;2022-08-21T08:53:12;20.00;99.90
43946;DHT22;29599;51.196;4.428;2022-08-21T08:55:41;20.00;99.90
43946;DHT22;29599;51.196;4.428;2022-08-21T08:58:09;19.90;99.90
43946;DHT22;29599;51.196;4.428;2022-08-21T09:00:38;19.90;99.90
43946;DHT22;29599;51.196;4.428;2022-08-21T09:03:03;20.00;99.90
43946;DHT22;29599;51.196;4.428;2022-08-21T09:05:38;20.00;99.90
43946;DHT22;29599;51.196;4.428;2022-08-21T09:16:12;20.20;99.90
43946;DHT22;29599;51.196;4.428;2022-08-21T09:24:32;20.30;99.90
43946;DHT22;29599;51.196;4.428;2022-08-21T09:27:11;20.40;99.90
43946;DHT22;29599;51.196;4.428;2022-08-21T09:29:40;20.60;99.90
43946;DHT22;29599;51.196;4.428;2022-08-21T09:32:28;20.80;99.90
43946;DHT22;29599;51.196;4.428;2022-08-21T09:34:57;21.00;99.90
43946;DHT22;29599;51.196;4.428;2022-08-21T09:37:24;21.10;99.90
43946;DHT22;29599;51.196;4.428;2022-08-21T09:39:50;21.00;99.90
43946;DHT22;29599;51.196;4.428;2022-08-21T09:42:28;21.00;99.90
43946;DHT22;29599;51.196;4.428;2022-08-21T09:45:12;21.10;99.90
43946;DHT22;29599;51.196;4.428;2022-08-21T09:47:39;21.10;99.90
43946;DHT22;29599;51.196;4.428;2022-08-21T09:50:21;21.20;99.90
43946;DHT22;29599;51.196;4.428;2022-08-21T09:52:58;21.20;99.90
43946;DHT22;29599;51.196;4.428;2022-08-21T09:55:38;21.30;99.90
43946;DHT22;29599;51.196;4.428;2022-08-21T09:58:32;21.30;99.90
43946;DHT22;29599;51.196;4.428;2022-08-21T10:01:00;21.20;99.90
43946;DHT22;29599;51.196;4.428;2022-08-21T10:03:26;21.20;99.90
43946;DHT22;29599;51.196;4.428;2022-08-21T10:06:01;21.00;99.90
43946;DHT22;29599;51.196;4.428;2022-08-21T10:08:31;21.00;99.90
43946;DHT22;29599;51.196;4.428;2022-08-21T10:11:07;21.00;99.90
43946;DHT22;29599;51.196;4.428;2022-08-21T10:19:32;21.20;99.90
43946;DHT22;29599;51.196;4.428;2022-08-21T10:22:20;21.40;99.90
43946;DHT22;29599;51.196;4.428;2022-08-21T10:28:05;21.70;99.90
43946;DHT22;29599;51.196;4.428;2022-08-21T10:30:46;21.70;99.90
43946;DHT22;29599;51.196;4.428;2022-08-21T10:33:38;21.90;99.90
43946;DHT22;29599;51.196;4.428;2022-08-21T10:36:20;22.10;99.90
43946;DHT22;29599;51.196;4.428;2022-08-21T10:47:46;21.70;99.90
43946;DHT22;29599;51.196;4.428;2022-08-21T10:55:41;21.90;99.90
43946;DHT22;29599;51.196;4.428;2022-08-21T10:58:28;21.90;99.90
43946;DHT22;29599;51.196;4.428;2022-08-21T11:01:10;22.00;99.90
43946;DHT22;29599;51.196;4.428;2022-08-21T11:03:52;22.10;99.90
43946;DHT22;29599;51.196;4.428;2022-08-21T11:06:23;22.20;99.90
43946;DHT22;29599;51.196;4.428;2022-08-21T11:08:56;22.30;99.90
43946;DHT22;29599;51.196;4.428;2022-08-21T11:11:32;22.30;99.90
43946;DHT22;29599;51.196;4.428;2022-08-21T11:14:04;22.40;99.90
43946;DHT22;29599;51.196;4.428;2022-08-21T11:16:42;22.40;99.90
43946;DHT22;29599;51.196;4.428;2022-08-21T11:19:30;22.40;99.90
43946;DHT22;29599;51.196;4.428;2022-08-21T11:21:58;22.40;99.90
43946;DHT22;29599;51.196;4.428;2022-08-21T11:24:42;22.30;99.90
43946;DHT22;29599;51.196;4.428;2022-08-21T11:27:23;22.40;99.90
43946;DHT22;29599;51.196;4.428;2022-08-21T11:29:55;22.40;99.90
43946;DHT22;29599;51.196;4.428;2022-08-21T11:38:27;22.70;99.90
43946;DHT22;29599;51.196;4.428;2022-08-21T11:41:28;22.90;99.90
43946;DHT22;29599;51.196;4.428;2022-08-21T11:44:02;23.00;99.90
43946;DHT22;29599;51.196;4.428;2022-08-21T11:46:48;22.90;99.90
43946;DHT22;29599;51.196;4.428;2022-08-21T11:49:53;22.90;99.90
43946;DHT22;29599;51.196;4.428;2022-08-21T11:52:50;22.80;99.90
43946;DHT22;29599;51.196;4.428;2022-08-21T11:55:25;23.00;99.90
43946;DHT22;29599;51.196;4.428;2022-08-21T11:57:55;23.10;99.90
43946;DHT22;29599;51.196;4.428;2022-08-21T12:00:47;23.30;99.90
43946;DHT22;29599;51.196;4.428;2022-08-21T12:03:22;23.30;99.90
43946;DHT22;29599;51.196;4.428;2022-08-21T12:05:57;23.20;99.90
43946;DHT22;29599;51.196;4.428;2022-08-21T12:08:30;23.20;99.90
43946;DHT22;29599;51.196;4.428;2022-08-21T12:11:05;23.30;99.90
43946;DHT22;29599;51.196;4.428;2022-08-21T12:13:36;23.30;99.90
43946;DHT22;29599;51.196;4.428;2022-08-21T12:16:08;23.30;99.90
43946;DHT22;29599;51.196;4.428;2022-08-21T12:18:34;23.30;99.90
43946;DHT22;29599;51.196;4.428;2022-08-21T12:23:43;23.40;99.90
43946;DHT22;29599;51.196;4.428;2022-08-21T12:28:46;23.40;99.90
43946;DHT22;29599;51.196;4.428;2022-08-21T12:31:24;23.40;99.90
43946;DHT22;29599;51.196;4.428;2022-08-21T12:33:54;23.40;99.90
43946;DHT22;29599;51.196;4.428;2022-08-21T12:36:23;23.50;99.90
43946;DHT22;29599;51.196;4.428;2022-08-21T12:39:03;23.60;99.90
43946;DHT22;29599;51.196;4.428;2022-08-21T12:41:46;23.60;99.90
43946;DHT22;29599;51.196;4.428;2022-08-21T12:44:21;23.70;99.90
43946;DHT22;29599;51.196;4.428;2022-08-21T12:47:05;23.70;99.90
43946;DHT22;29599;51.196;4.428;2022-08-21T12:49:47;23.60;99.90
43946;DHT22;29599;51.196;4.428;2022-08-21T12:52:23;23.50;99.90
43946;DHT22;29599;51.196;4.428;2022-08-21T12:54:49;23.30;99.90
43946;DHT22;29599;51.196;4.428;2022-08-21T12:57:27;23.20;99.90
43946;DHT22;29599;51.196;4.428;2022-08-21T12:59:58;23.10;99.90
43946;DHT22;29599;51.196;4.428;2022-08-21T13:02:33;23.10;99.90
43946;DHT22;29599;51.196;4.428;2022-08-21T13:05:06;23.10;99.90
43946;DHT22;29599;51.196;4.428;2022-08-21T13:07:35;23.10;99.90
43946;DHT22;29599;51.196;4.428;2022-08-21T13:10:05;23.00;99.90
43946;DHT22;29599;51.196;4.428;2022-08-21T13:12:33;22.90;99.90
43946;DHT22;29599;51.196;4.428;2022-08-21T13:15:05;22.90;99.90
43946;DHT22;29599;51.196;4.428;2022-08-21T13:17:34;22.80;99.90
43946;DHT22;29599;51.196;4.428;2022-08-21T13:20:10;22.80;99.90
43946;DHT22;29599;51.196;4.428;2022-08-21T13:22:44;22.80;99.90
43946;DHT22;29599;51.196;4.428;2022-08-21T13:25:15;22.80;99.90
43946;DHT22;29599;51.196;4.428;2022-08-21T13:27:43;22.80;99.90
43946;DHT22;29599;51.196;4.428;2022-08-21T13:30:13;22.70;99.90
43946;DHT22;29599;51.196;4.428;2022-08-21T13:32:45;22.70;99.90
43946;DHT22;29599;51.196;4.428;2022-08-21T13:35:22;22.70;99.90
43946;DHT22;29599;51.196;4.428;2022-08-21T13:37:49;22.70;99.90
43946;DHT22;29599;51.196;4.428;2022-08-21T13:40:29;22.70;99.90
43946;DHT22;29599;51.196;4.428;2022-08-21T13:42:55;22.70;99.90
43946;DHT22;29599;51.196;4.428;2022-08-21T13:45:27;22.80;99.90
43946;DHT22;29599;51.196;4.428;2022-08-21T13:47:56;22.80;99.90
43946;DHT22;29599;51.196;4.428;2022-08-21T13:50:24;22.90;99.90
43946;DHT22;29599;51.196;4.428;2022-08-21T13:53:01;22.90;99.90
43946;DHT22;29599;51.196;4.428;2022-08-21T13:55:38;22.90;99.90
43946;DHT22;29599;51.196;4.428;2022-08-21T13:58:05;22.90;99.90
43946;DHT22;29599;51.196;4.428;2022-08-21T14:00:33;22.80;99.90
43946;DHT22;29599;51.196;4.428;2022-08-21T14:03:08;22.80;99.90
43946;DHT22;29599;51.196;4.428;2022-08-21T14:05:38;22.80;99.90
43946;DHT22;29599;51.196;4.428;2022-08-21T14:08:12;22.80;99.90
43946;DHT22;29599;51.196;4.428;2022-08-21T14:10:44;22.80;99.90
43946;DHT22;29599;51.196;4.428;2022-08-21T14:13:40;22.80;99.90
43946;DHT22;29599;51.196;4.428;2022-08-21T14:18:49;22.70;99.90
43946;DHT22;29599;51.196;4.428;2022-08-21T14:21:26;22.60;99.90
43946;DHT22;29599;51.196;4.428;2022-08-21T14:24:02;22.60;99.90
43946;DHT22;29599;51.196;4.428;2022-08-21T14:26:28;22.70;99.90
43946;DHT22;29599;51.196;4.428;2022-08-21T14:28:59;22.70;99.90
43946;DHT22;29599;51.196;4.428;2022-08-21T14:31:30;22.70;99.90
43946;DHT22;29599;51.196;4.428;2022-08-21T14:33:57;22.80;99.90
43946;DHT22;29599;51.196;4.428;2022-08-21T14:36:23;22.70;99.90
43946;DHT22;29599;51.196;4.428;2022-08-21T14:38:49;22.80;99.90
43946;DHT22;29599;51.196;4.428;2022-08-21T14:41:22;22.80;99.90
43946;DHT22;29599;51.196;4.428;2022-08-21T14:43:48;22.80;99.90
43946;DHT22;29599;51.196;4.428;2022-08-21T14:46:27;22.80;99.90
43946;DHT22;29599;51.196;4.428;2022-08-21T14:48:54;22.90;99.90
43946;DHT22;29599;51.196;4.428;2022-08-21T14:51:19;22.90;99.90
43946;DHT22;29599;51.196;4.428;2022-08-21T14:53:45;22.90;99.90
43946;DHT22;29599;51.196;4.428;2022-08-21T14:56:12;22.90;99.90
43946;DHT22;29599;51.196;4.428;2022-08-21T14:58:41;22.90;99.90
43946;DHT22;29599;51.196;4.428;2022-08-21T15:01:09;22.90;99.90
43946;DHT22;29599;51.196;4.428;2022-08-21T15:03:35;22.90;99.90
43946;DHT22;29599;51.196;4.428;2022-08-21T15:06:03;22.80;99.90
43946;DHT22;29599;51.196;4.428;2022-08-21T15:08:29;22.70;99.90
43946;DHT22;29599;51.196;4.428;2022-08-21T15:10:55;22.70;99.90
43946;DHT22;29599;51.196;4.428;2022-08-21T15:13:21;22.70;99.90
43946;DHT22;29599;51.196;4.428;2022-08-21T15:15:49;22.70;99.90
43946;DHT22;29599;51.196;4.428;2022-08-21T15:18:20;22.70;99.90
43946;DHT22;29599;51.196;4.428;2022-08-21T15:20:46;22.80;99.90
43946;DHT22;29599;51.196;4.428;2022-08-21T15:23:12;22.70;99.90
43946;DHT22;29599;51.196;4.428;2022-08-21T15:25:41;22.70;99.90
43946;DHT22;29599;51.196;4.428;2022-08-21T15:28:07;22.70;99.90
43946;DHT22;29599;51.196;4.428;2022-08-21T15:30:34;22.80;99.90
43946;DHT22;29599;51.196;4.428;2022-08-21T15:32:59;22.80;99.90
43946;DHT22;29599;51.196;4.428;2022-08-21T15:35:25;22.80;99.90
43946;DHT22;29599;51.196;4.428;2022-08-21T15:37:51;22.70;99.90
43946;DHT22;29599;51.196;4.428;2022-08-21T15:40:16;22.80;99.90
43946;DHT22;29599;51.196;4.428;2022-08-21T15:42:43;22.70;99.90
43946;DHT22;29599;51.196;4.428;2022-08-21T15:45:10;22.70;99.90
43946;DHT22;29599;51.196;4.428;2022-08-21T15:47:37;22.60;99.90
43946;DHT22;29599;51.196;4.428;2022-08-21T15:50:06;22.70;99.90
43946;DHT22;29599;51.196;4.428;2022-08-21T15:52:32;22.70;99.90
43946;DHT22;29599;51.196;4.428;2022-08-21T15:54:58;22.70;99.90
43946;DHT22;29599;51.196;4.428;2022-08-21T15:57:24;22.60;99.90
43946;DHT22;29599;51.196;4.428;2022-08-21T15:59:56;22.70;99.90
43946;DHT22;29599;51.196;4.428;2022-08-21T16:02:26;22.70;99.90
43946;DHT22;29599;51.196;4.428;2022-08-21T16:04:52;22.70;99.90
43946;DHT22;29599;51.196;4.428;2022-08-21T16:07:18;22.70;99.90
43946;DHT22;29599;51.196;4.428;2022-08-21T16:09:45;22.70;99.90
43946;DHT22;29599;51.196;4.428;2022-08-21T16:12:21;22.70;99.90
43946;DHT22;29599;51.196;4.428;2022-08-21T16:14:48;22.70;99.90
43946;DHT22;29599;51.196;4.428;2022-08-21T16:17:15;22.70;99.90
43946;DHT22;29599;51.196;4.428;2022-08-21T16:19:40;22.70;99.90
43946;DHT22;29599;51.196;4.428;2022-08-21T16:22:06;22.70;99.90
43946;DHT22;29599;51.196;4.428;2022-08-21T16:24:32;22.60;99.90
43946;DHT22;29599;51.196;4.428;2022-08-21T16:26:58;22.60;99.90
43946;DHT22;29599;51.196;4.428;2022-08-21T16:29:32;22.60;99.90
43946;DHT22;29599;51.196;4.428;2022-08-21T16:31:58;22.60;99.90
43946;DHT22;29599;51.196;4.428;2022-08-21T16:34:24;22.60;99.90